MSC Lisbon — A8LL9 — position and weather

sailwx.info

Track history (hours):
 
Tides and Currents Weather Stations Pressure Air Temp Water Temp Dewpoint Dewpoint Depression Visibility Wind Speed Wind Dir Waves Ship Positions

MSC Lisbon

Last reported at 2017-Jul-20 14:00 UTC. Time now 2017-Jul-20 14:40 UTC.
Position N 25°46' W 080°09'.

Length 336.7 m; beam 45.6 m; draft 15.3 m.

MMSI: 636018079.

Date/timePositionNaut miles runAvg speedWind from/ knotsBaromVisibWave heightAir tempDewpointWater temp
2017-Jul-20 14:00N 25°46' W 080°09'0 0.0
2017-Jul-20 13:30N 25°46' W 080°09'1 2.9
2017-Jul-20 13:00N 25°46' W 080°08'510.9
2017-Jul-20 12:30N 25°47' W 080°02'1 1.4
2017-Jul-20 12:00N 25°48' W 080°01'3 6.4
2017-Jul-20 11:30N 25°51' W 080°00'611.5
2017-Jul-20 11:00N 25°56' W 079°59'612.6
2017-Jul-20 10:30N 26°03' W 079°57'713.3
2017-Jul-20 10:00N 26°09' W 079°56'713.8
2017-Jul-20 09:30N 26°16' W 079°54'713.8
2017-Jul-20 09:00N 26°23' W 079°53'713.7
2017-Jul-20 08:30N 26°29' W 079°51'713.4
2017-Jul-20 08:00N 26°36' W 079°50'1513.2
2017-Jul-20 06:50N 26°51' W 079°47'412.5
2017-Jul-20 06:30N 26°55' W 079°47'612.8
2017-Jul-20 06:00N 27°02' W 079°46'612.7
2017-Jul-20 05:30N 27°08' W 079°46'331 8.3
2017-Jul-18 13:36N 32°39' W 079°40'3 7.7
2017-Jul-18 13:09N 32°37' W 079°36'2 7.8
2017-Jul-18 12:54N 32°37' W 079°34'3 5.2
2017-Jul-18 12:21N 32°36' W 079°31'208 6.3
2017-Jul-17 03:20N 34°23' W 075°58'612.1
2017-Jul-17 02:51N 34°27' W 075°52'512.1
2017-Jul-17 02:25N 34°30' W 075°47'13710.6
2017-Jul-16 13:30N 36°47' W 075°43'813.0
2017-Jul-16 12:54N 36°51' W 075°51'513.7
2017-Jul-16 12:30N 36°55' W 075°56'612.6
2017-Jul-16 12:00N 36°58' W 076°03'917.1
2017-Jul-16 11:28N 37°00' W 076°14'711.0
2017-Jul-16 10:52N 36°56' W 076°20'3 8.5
2017-Jul-16 10:30N 36°53' W 076°20'1 1.5
2017-Jul-16 09:57N 36°52' W 076°21'0 0.0
2017-Jul-16 09:27N 36°52' W 076°21'0 0.0
2017-Jul-16 09:00N 36°52' W 076°21'0 0.0
2017-Jul-16 08:30N 36°52' W 076°21'0 0.0
2017-Jul-16 08:00N 36°52' W 076°21'0 0.0
2017-Jul-16 07:30N 36°52' W 076°21'0 0.0
2017-Jul-16 07:00N 36°52' W 076°21'0 0.0
2017-Jul-16 06:30N 36°52' W 076°21'0 0.0
2017-Jul-16 06:00N 36°52' W 076°21'0 0.0
2017-Jul-16 05:30N 36°52' W 076°21'0 0.0
2017-Jul-16 05:00N 36°52' W 076°21'0 0.0
2017-Jul-16 04:30N 36°52' W 076°21'0 0.0
2017-Jul-16 04:00N 36°52' W 076°21'0 0.0
2017-Jul-16 03:30N 36°52' W 076°21'0 0.0
2017-Jul-16 03:00N 36°52' W 076°21'0 0.0
2017-Jul-16 02:30N 36°52' W 076°21'0 0.0
2017-Jul-16 02:00N 36°52' W 076°21'0 0.0
2017-Jul-16 01:30N 36°52' W 076°21'0 0.0
2017-Jul-16 01:00N 36°52' W 076°21'0 0.0
2017-Jul-16 00:30N 36°52' W 076°21'0 0.0
2017-Jul-16 00:00N 36°52' W 076°21'0 0.0
2017-Jul-15 23:30N 36°52' W 076°21'0 0.0
2017-Jul-15 22:57N 36°52' W 076°21'0 0.0
2017-Jul-15 22:27N 36°52' W 076°21'0 0.0
2017-Jul-15 22:00N 36°52' W 076°21'0 0.0
2017-Jul-15 21:30N 36°52' W 076°21'0 0.0
2017-Jul-15 21:00N 36°52' W 076°21'0 0.0
2017-Jul-15 20:30N 36°52' W 076°21'0 0.0
2017-Jul-15 20:00N 36°52' W 076°21'0 0.0
2017-Jul-15 19:30N 36°52' W 076°21'0 0.0
2017-Jul-15 18:51N 36°52' W 076°21'0 0.0
2017-Jul-15 18:30N 36°52' W 076°21'0 0.0
2017-Jul-15 18:00N 36°52' W 076°21'0 0.0
2017-Jul-15 17:30N 36°52' W 076°21'0 0.0
2017-Jul-15 17:00N 36°52' W 076°21'0 0.0
2017-Jul-15 16:30N 36°52' W 076°21'0 0.0
2017-Jul-15 16:00N 36°52' W 076°21'0 0.0
2017-Jul-15 15:30N 36°52' W 076°21'0 0.0
2017-Jul-15 15:00N 36°52' W 076°21'0 0.0
2017-Jul-15 14:00N 36°52' W 076°21'0 0.0
2017-Jul-15 13:30N 36°52' W 076°21'0 0.0
2017-Jul-15 13:00N 36°52' W 076°21'0 0.0
2017-Jul-15 12:27N 36°52' W 076°21'0 0.0
2017-Jul-15 12:00N 36°52' W 076°21'0 0.0
2017-Jul-15 11:30N 36°52' W 076°21'0 0.0
2017-Jul-15 10:57N 36°52' W 076°21'0 0.0
2017-Jul-15 09:15N 36°52' W 076°21'0 0.0
2017-Jul-15 08:46N 36°52' W 076°21'0 0.0
2017-Jul-15 08:30N 36°52' W 076°21'1 2.1
2017-Jul-15 08:00N 36°53' W 076°20'4 7.5
2017-Jul-15 07:30N 36°57' W 076°20'510.7
2017-Jul-15 07:00N 37°01' W 076°15'815.6
2017-Jul-15 06:30N 36°58' W 076°06'714.5
2017-Jul-15 06:00N 36°57' W 075°57'510.6
2017-Jul-15 05:30N 36°53' W 075°52'713.6
2017-Jul-15 05:00N 36°49' W 075°45'9214.6
2017-Jul-14 22:45N 35°28' W 074°52'414.9
2017-Jul-14 22:30N 35°25' W 074°51'714.9
2017-Jul-14 22:00N 35°18' W 074°47'4714.6
2017-Jul-14 18:50N 34°45' W 075°27'615.8
2017-Jul-14 18:25N 34°41' W 075°33'615.3
2017-Jul-14 18:00N 34°36' W 075°39'815.1
2017-Jul-14 17:30N 34°31' W 075°46'815.1
2017-Jul-14 16:58N 34°26' W 075°53'815.0
2017-Jul-14 16:26N 34°21' W 076°01'615.2
2017-Jul-14 16:00N 34°17' W 076°06'815.0
2017-Jul-14 15:29N 34°11' W 076°14'714.0
2017-Jul-14 14:58N 34°07' W 076°20'614.2
2017-Jul-14 14:30N 34°02' W 076°26'914.1
2017-Jul-14 13:54N 33°57' W 076°34'23213.2
2017-Jul-13 20:21N 31°53' W 080°27'712.4
2017-Jul-13 19:48N 31°55' W 080°35'412.6
2017-Jul-13 19:30N 31°57' W 080°39'611.6
2017-Jul-13 19:00N 31°59' W 080°45'713.3
2017-Jul-13 18:30N 32°02' W 080°52'611.0
2017-Jul-13 18:00N 32°04' W 080°58'4 8.4
2017-Jul-13 17:30N 32°05' W 081°03'3 6.0
2017-Jul-13 17:00N 32°06' W 081°06'2 4.7
2017-Jul-13 16:30N 32°07' W 081°08'1 1.5
2017-Jul-13 15:49N 32°08' W 081°09'0 0.0
2017-Jul-13 15:25N 32°08' W 081°09'0 0.0
2017-Jul-13 14:55N 32°08' W 081°09'0 0.0
2017-Jul-13 14:25N 32°08' W 081°09'0 0.0
2017-Jul-13 13:55N 32°08' W 081°09'0 0.0
2017-Jul-13 13:19N 32°08' W 081°09'0 0.0
2017-Jul-13 12:55N 32°08' W 081°09'0 0.0
2017-Jul-13 12:25N 32°08' W 081°09'0 0.0
2017-Jul-13 11:55N 32°08' W 081°09'0 0.0
2017-Jul-13 11:25N 32°08' W 081°09'0 0.0
2017-Jul-13 10:55N 32°08' W 081°09'0 0.0
2017-Jul-13 10:25N 32°08' W 081°09'0 0.0
2017-Jul-13 09:55N 32°08' W 081°09'0 0.0
2017-Jul-13 09:25N 32°08' W 081°09'0 0.0
2017-Jul-13 08:55N 32°08' W 081°09'0 0.0
2017-Jul-13 08:25N 32°08' W 081°09'0 0.0
2017-Jul-13 07:43N 32°08' W 081°09'0 0.0
2017-Jul-13 07:25N 32°08' W 081°09'0 0.0
2017-Jul-13 06:55N 32°08' W 081°09'0 0.0
2017-Jul-13 06:31N 32°08' W 081°09'0 0.0
2017-Jul-13 06:01N 32°08' W 081°09'0 0.0
2017-Jul-13 05:30N 32°08' W 081°09'0 0.0
2017-Jul-13 05:00N 32°08' W 081°09'0 0.0
2017-Jul-13 04:24N 32°08' W 081°09'0 0.0
2017-Jul-13 04:00N 32°08' W 081°09'0 0.0
2017-Jul-13 03:30N 32°08' W 081°09'0 0.0
2017-Jul-13 03:00N 32°08' W 081°09'0 0.0
2017-Jul-13 02:18N 32°08' W 081°09'0 0.0
2017-Jul-13 02:00N 32°08' W 081°09'0 0.0
2017-Jul-13 01:30N 32°08' W 081°09'0 0.0
2017-Jul-13 01:00N 32°08' W 081°09'0 0.0
2017-Jul-13 00:30N 32°08' W 081°09'0 0.0
2017-Jul-13 00:00N 32°08' W 081°09'0 0.0
2017-Jul-12 23:30N 32°08' W 081°09'0 0.0
2017-Jul-12 22:57N 32°08' W 081°09'0 0.0
2017-Jul-12 22:27N 32°08' W 081°09'0 0.0
2017-Jul-12 21:57N 32°08' W 081°09'0 0.0
2017-Jul-12 21:15N 32°08' W 081°09'0 0.0
2017-Jul-12 20:57N 32°08' W 081°09'0 0.0
2017-Jul-12 20:21N 32°08' W 081°09'0 0.0
2017-Jul-12 19:57N 32°08' W 081°09'0 0.0
2017-Jul-12 19:27N 32°08' W 081°09'0 0.0
2017-Jul-12 18:57N 32°08' W 081°09'0 0.0
2017-Jul-12 18:26N 32°08' W 081°09'0 0.0
2017-Jul-12 17:56N 32°08' W 081°09'0 0.0
2017-Jul-12 17:26N 32°08' W 081°09'0 0.0
2017-Jul-12 16:57N 32°08' W 081°09'0 0.0
2017-Jul-12 16:29N 32°08' W 081°09'0 0.0
2017-Jul-12 15:59N 32°08' W 081°09'0 0.0
2017-Jul-12 15:29N 32°08' W 081°09'0 0.0
2017-Jul-12 15:01N 32°08' W 081°09'3 3.1
2017-Jul-12 14:01N 32°06' W 081°06'2 4.9
2017-Jul-12 13:30N 32°05' W 081°04'3 5.4
2017-Jul-12 13:01N 32°06' W 081°01'611.4
2017-Jul-12 12:30N 32°02' W 080°55'612.6
2017-Jul-12 12:00N 32°01' W 080°48'713.8
2017-Jul-12 11:30N 31°58' W 080°41'4 8.3
2017-Jul-12 11:00N 31°58' W 080°36'1 2.1
2017-Jul-12 10:23N 31°59' W 080°36'0 0.1
2017-Jul-12 09:59N 31°59' W 080°36'0 0.2
2017-Jul-12 09:11N 31°59' W 080°36'0 0.0
2017-Jul-12 08:59N 31°59' W 080°36'0 0.0
2017-Jul-12 08:23N 31°59' W 080°36'0 0.0
2017-Jul-12 07:59N 31°59' W 080°36'0 0.0
2017-Jul-12 07:23N 31°59' W 080°36'0 0.0
2017-Jul-12 06:59N 31°59' W 080°36'0 0.0
2017-Jul-12 06:29N 31°59' W 080°36'0 0.0
2017-Jul-12 05:59N 31°59' W 080°36'0 0.0
2017-Jul-12 05:29N 31°59' W 080°36'0 0.0
2017-Jul-12 04:53N 31°59' W 080°36'0 0.0
2017-Jul-12 04:29N 31°59' W 080°36'0 0.0
2017-Jul-12 03:59N 31°59' W 080°36'0 0.0
2017-Jul-12 03:29N 31°59' W 080°36'0 0.1
2017-Jul-12 02:53N 31°59' W 080°36'0 0.0
2017-Jul-12 02:29N 31°59' W 080°36'0 0.1
2017-Jul-12 01:59N 31°59' W 080°36'0 0.0
2017-Jul-12 01:29N 31°59' W 080°36'0 0.0
2017-Jul-12 00:59N 31°59' W 080°36'0 0.0
2017-Jul-12 00:29N 31°59' W 080°36'0 0.1
2017-Jul-11 23:47N 31°59' W 080°36'0 0.1
2017-Jul-11 23:29N 31°59' W 080°36'0 0.0
2017-Jul-11 22:59N 31°59' W 080°36'0 0.0
2017-Jul-11 22:29N 31°59' W 080°36'0 0.0
2017-Jul-11 21:59N 31°59' W 080°36'0 0.0
2017-Jul-11 21:17N 31°59' W 080°36'0 0.0
2017-Jul-11 20:53N 31°59' W 080°36'0 0.0
2017-Jul-11 20:29N 31°59' W 080°36'0 0.1
2017-Jul-11 19:59N 31°59' W 080°36'0 0.1
2017-Jul-11 19:29N 31°59' W 080°36'0 0.1
2017-Jul-11 18:59N 31°59' W 080°36'0 0.1
2017-Jul-11 18:29N 31°59' W 080°36'0 0.1
2017-Jul-11 17:59N 31°59' W 080°36'0 0.1
2017-Jul-11 17:29N 31°59' W 080°36'0 0.0
2017-Jul-11 16:59N 31°59' W 080°36'0 0.0
2017-Jul-11 16:23N 31°59' W 080°36'0 0.1
2017-Jul-11 15:59N 31°59' W 080°36'0 0.1
2017-Jul-11 15:23N 31°59' W 080°36'0 0.0
2017-Jul-11 14:59N 31°59' W 080°36'0 0.1
2017-Jul-11 14:29N 31°59' W 080°36'0 0.1
2017-Jul-11 13:59N 31°59' W 080°36'0 0.1
2017-Jul-11 13:29N 31°59' W 080°36'0 0.0
2017-Jul-11 12:59N 31°59' W 080°36'0 0.0
2017-Jul-11 12:29N 31°59' W 080°36'0 0.0
2017-Jul-11 10:53N 31°59' W 080°36'0 0.0
2017-Jul-11 10:17N 31°59' W 080°36'0 0.4
2017-Jul-11 10:00N 31°59' W 080°36'2 4.3
2017-Jul-11 09:30N 31°57' W 080°34'713.5
2017-Jul-11 09:00N 31°52' W 080°29'814.2
2017-Jul-11 08:25N 31°47' W 080°22'613.9
2017-Jul-11 07:59N 31°43' W 080°16'2013.8
2017-Jul-11 06:31N 31°33' W 079°56'18011.6
2017-Jul-10 15:00N 29°48' W 077°06'   160 / 111020.010.8 30.322.228.1
Track history (hours):
 
Tides and Currents Weather Stations Pressure Air Temp Water Temp Dewpoint Dewpoint Depression Visibility Wind Speed Wind Dir Waves Ship Positions

MSC Lisbon

Last reported at 2017-Jul-20 14:00 UTC. Time now 2017-Jul-20 14:40 UTC.
Position N 25°46' W 080°09'.

Length 336.7 m; beam 45.6 m; draft 15.3 m.

MMSI: 636018079.

Date/timePositionNaut miles runAvg speedWind from/ knotsBaromVisibWave heightAir tempDewpointWater temp
2017-Jul-20 14:00N 25°46' W 080°09'0 0.0
2017-Jul-20 13:30N 25°46' W 080°09'1 2.9
2017-Jul-20 13:00N 25°46' W 080°08'510.9
2017-Jul-20 12:30N 25°47' W 080°02'1 1.4
2017-Jul-20 12:00N 25°48' W 080°01'3 6.4
2017-Jul-20 11:30N 25°51' W 080°00'611.5
2017-Jul-20 11:00N 25°56' W 079°59'612.6
2017-Jul-20 10:30N 26°03' W 079°57'713.3
2017-Jul-20 10:00N 26°09' W 079°56'713.8
2017-Jul-20 09:30N 26°16' W 079°54'713.8
2017-Jul-20 09:00N 26°23' W 079°53'713.7
2017-Jul-20 08:30N 26°29' W 079°51'713.4
2017-Jul-20 08:00N 26°36' W 079°50'1513.2
2017-Jul-20 06:50N 26°51' W 079°47'412.5
2017-Jul-20 06:30N 26°55' W 079°47'612.8
2017-Jul-20 06:00N 27°02' W 079°46'612.7
2017-Jul-20 05:30N 27°08' W 079°46'331 8.3
2017-Jul-18 13:36N 32°39' W 079°40'3 7.7
2017-Jul-18 13:09N 32°37' W 079°36'2 7.8
2017-Jul-18 12:54N 32°37' W 079°34'3 5.2
2017-Jul-18 12:21N 32°36' W 079°31'208 6.3
2017-Jul-17 03:20N 34°23' W 075°58'612.1
2017-Jul-17 02:51N 34°27' W 075°52'512.1
2017-Jul-17 02:25N 34°30' W 075°47'13710.6
2017-Jul-16 13:30N 36°47' W 075°43'813.0
2017-Jul-16 12:54N 36°51' W 075°51'513.7
2017-Jul-16 12:30N 36°55' W 075°56'612.6
2017-Jul-16 12:00N 36°58' W 076°03'917.1
2017-Jul-16 11:28N 37°00' W 076°14'711.0
2017-Jul-16 10:52N 36°56' W 076°20'3 8.5
2017-Jul-16 10:30N 36°53' W 076°20'1 1.5
2017-Jul-16 09:57N 36°52' W 076°21'0 0.0
2017-Jul-16 09:27N 36°52' W 076°21'0 0.0
2017-Jul-16 09:00N 36°52' W 076°21'0 0.0
2017-Jul-16 08:30N 36°52' W 076°21'0 0.0
2017-Jul-16 08:00N 36°52' W 076°21'0 0.0
2017-Jul-16 07:30N 36°52' W 076°21'0 0.0
2017-Jul-16 07:00N 36°52' W 076°21'0 0.0
2017-Jul-16 06:30N 36°52' W 076°21'0 0.0
2017-Jul-16 06:00N 36°52' W 076°21'0 0.0
2017-Jul-16 05:30N 36°52' W 076°21'0 0.0
2017-Jul-16 05:00N 36°52' W 076°21'0 0.0
2017-Jul-16 04:30N 36°52' W 076°21'0 0.0
2017-Jul-16 04:00N 36°52' W 076°21'0 0.0
2017-Jul-16 03:30N 36°52' W 076°21'0 0.0
2017-Jul-16 03:00N 36°52' W 076°21'0 0.0
2017-Jul-16 02:30N 36°52' W 076°21'0 0.0
2017-Jul-16 02:00N 36°52' W 076°21'0 0.0
2017-Jul-16 01:30N 36°52' W 076°21'0 0.0
2017-Jul-16 01:00N 36°52' W 076°21'0 0.0
2017-Jul-16 00:30N 36°52' W 076°21'0 0.0
2017-Jul-16 00:00N 36°52' W 076°21'0 0.0
2017-Jul-15 23:30N 36°52' W 076°21'0 0.0
2017-Jul-15 22:57N 36°52' W 076°21'0 0.0
2017-Jul-15 22:27N 36°52' W 076°21'0 0.0
2017-Jul-15 22:00N 36°52' W 076°21'0 0.0
2017-Jul-15 21:30N 36°52' W 076°21'0 0.0
2017-Jul-15 21:00N 36°52' W 076°21'0 0.0
2017-Jul-15 20:30N 36°52' W 076°21'0 0.0
2017-Jul-15 20:00N 36°52' W 076°21'0 0.0
2017-Jul-15 19:30N 36°52' W 076°21'0 0.0
2017-Jul-15 18:51N 36°52' W 076°21'0 0.0
2017-Jul-15 18:30N 36°52' W 076°21'0 0.0
2017-Jul-15 18:00N 36°52' W 076°21'0 0.0
2017-Jul-15 17:30N 36°52' W 076°21'0 0.0
2017-Jul-15 17:00N 36°52' W 076°21'0 0.0
2017-Jul-15 16:30N 36°52' W 076°21'0 0.0
2017-Jul-15 16:00N 36°52' W 076°21'0 0.0
2017-Jul-15 15:30N 36°52' W 076°21'0 0.0
2017-Jul-15 15:00N 36°52' W 076°21'0 0.0
2017-Jul-15 14:00N 36°52' W 076°21'0 0.0
2017-Jul-15 13:30N 36°52' W 076°21'0 0.0
2017-Jul-15 13:00N 36°52' W 076°21'0 0.0
2017-Jul-15 12:27N 36°52' W 076°21'0 0.0
2017-Jul-15 12:00N 36°52' W 076°21'0 0.0
2017-Jul-15 11:30N 36°52' W 076°21'0 0.0
2017-Jul-15 10:57N 36°52' W 076°21'0 0.0
2017-Jul-15 09:15N 36°52' W 076°21'0 0.0
2017-Jul-15 08:46N 36°52' W 076°21'0 0.0
2017-Jul-15 08:30N 36°52' W 076°21'1 2.1
2017-Jul-15 08:00N 36°53' W 076°20'4 7.5
2017-Jul-15 07:30N 36°57' W 076°20'510.7
2017-Jul-15 07:00N 37°01' W 076°15'815.6
2017-Jul-15 06:30N 36°58' W 076°06'714.5
2017-Jul-15 06:00N 36°57' W 075°57'510.6
2017-Jul-15 05:30N 36°53' W 075°52'713.6
2017-Jul-15 05:00N 36°49' W 075°45'9214.6
2017-Jul-14 22:45N 35°28' W 074°52'414.9
2017-Jul-14 22:30N 35°25' W 074°51'714.9
2017-Jul-14 22:00N 35°18' W 074°47'4714.6
2017-Jul-14 18:50N 34°45' W 075°27'615.8
2017-Jul-14 18:25N 34°41' W 075°33'615.3
2017-Jul-14 18:00N 34°36' W 075°39'815.1
2017-Jul-14 17:30N 34°31' W 075°46'815.1
2017-Jul-14 16:58N 34°26' W 075°53'815.0
2017-Jul-14 16:26N 34°21' W 076°01'615.2
2017-Jul-14 16:00N 34°17' W 076°06'815.0
2017-Jul-14 15:29N 34°11' W 076°14'714.0
2017-Jul-14 14:58N 34°07' W 076°20'614.2
2017-Jul-14 14:30N 34°02' W 076°26'914.1
2017-Jul-14 13:54N 33°57' W 076°34'23213.2
2017-Jul-13 20:21N 31°53' W 080°27'712.4
2017-Jul-13 19:48N 31°55' W 080°35'412.6
2017-Jul-13 19:30N 31°57' W 080°39'611.6
2017-Jul-13 19:00N 31°59' W 080°45'713.3
2017-Jul-13 18:30N 32°02' W 080°52'611.0
2017-Jul-13 18:00N 32°04' W 080°58'4 8.4
2017-Jul-13 17:30N 32°05' W 081°03'3 6.0
2017-Jul-13 17:00N 32°06' W 081°06'2 4.7
2017-Jul-13 16:30N 32°07' W 081°08'1 1.5
2017-Jul-13 15:49N 32°08' W 081°09'0 0.0
2017-Jul-13 15:25N 32°08' W 081°09'0 0.0
2017-Jul-13 14:55N 32°08' W 081°09'0 0.0
2017-Jul-13 14:25N 32°08' W 081°09'0 0.0
2017-Jul-13 13:55N 32°08' W 081°09'0 0.0
2017-Jul-13 13:19N 32°08' W 081°09'0 0.0
2017-Jul-13 12:55N 32°08' W 081°09'0 0.0
2017-Jul-13 12:25N 32°08' W 081°09'0 0.0
2017-Jul-13 11:55N 32°08' W 081°09'0 0.0
2017-Jul-13 11:25N 32°08' W 081°09'0 0.0
2017-Jul-13 10:55N 32°08' W 081°09'0 0.0
2017-Jul-13 10:25N 32°08' W 081°09'0 0.0
2017-Jul-13 09:55N 32°08' W 081°09'0 0.0
2017-Jul-13 09:25N 32°08' W 081°09'0 0.0
2017-Jul-13 08:55N 32°08' W 081°09'0 0.0
2017-Jul-13 08:25N 32°08' W 081°09'0 0.0
2017-Jul-13 07:43N 32°08' W 081°09'0 0.0
2017-Jul-13 07:25N 32°08' W 081°09'0 0.0
2017-Jul-13 06:55N 32°08' W 081°09'0 0.0
2017-Jul-13 06:31N 32°08' W 081°09'0 0.0
2017-Jul-13 06:01N 32°08' W 081°09'0 0.0
2017-Jul-13 05:30N 32°08' W 081°09'0 0.0
2017-Jul-13 05:00N 32°08' W 081°09'0 0.0
2017-Jul-13 04:24N 32°08' W 081°09'0 0.0
2017-Jul-13 04:00N 32°08' W 081°09'0 0.0
2017-Jul-13 03:30N 32°08' W 081°09'0 0.0
2017-Jul-13 03:00N 32°08' W 081°09'0 0.0
2017-Jul-13 02:18N 32°08' W 081°09'0 0.0
2017-Jul-13 02:00N 32°08' W 081°09'0 0.0
2017-Jul-13 01:30N 32°08' W 081°09'0 0.0
2017-Jul-13 01:00N 32°08' W 081°09'0 0.0
2017-Jul-13 00:30N 32°08' W 081°09'0 0.0
2017-Jul-13 00:00N 32°08' W 081°09'0 0.0
2017-Jul-12 23:30N 32°08' W 081°09'0 0.0
2017-Jul-12 22:57N 32°08' W 081°09'0 0.0
2017-Jul-12 22:27N 32°08' W 081°09'0 0.0
2017-Jul-12 21:57N 32°08' W 081°09'0 0.0
2017-Jul-12 21:15N 32°08' W 081°09'0 0.0
2017-Jul-12 20:57N 32°08' W 081°09'0 0.0
2017-Jul-12 20:21N 32°08' W 081°09'0 0.0
2017-Jul-12 19:57N 32°08' W 081°09'0 0.0
2017-Jul-12 19:27N 32°08' W 081°09'0 0.0
2017-Jul-12 18:57N 32°08' W 081°09'0 0.0
2017-Jul-12 18:26N 32°08' W 081°09'0 0.0
2017-Jul-12 17:56N 32°08' W 081°09'0 0.0
2017-Jul-12 17:26N 32°08' W 081°09'0 0.0
2017-Jul-12 16:57N 32°08' W 081°09'0 0.0
2017-Jul-12 16:29N 32°08' W 081°09'0 0.0
2017-Jul-12 15:59N 32°08' W 081°09'0 0.0
2017-Jul-12 15:29N 32°08' W 081°09'0 0.0
2017-Jul-12 15:01N 32°08' W 081°09'3 3.1
2017-Jul-12 14:01N 32°06' W 081°06'2 4.9
2017-Jul-12 13:30N 32°05' W 081°04'3 5.4
2017-Jul-12 13:01N 32°06' W 081°01'611.4
2017-Jul-12 12:30N 32°02' W 080°55'612.6
2017-Jul-12 12:00N 32°01' W 080°48'713.8
2017-Jul-12 11:30N 31°58' W 080°41'4 8.3
2017-Jul-12 11:00N 31°58' W 080°36'1 2.1
2017-Jul-12 10:23N 31°59' W 080°36'0 0.1
2017-Jul-12 09:59N 31°59' W 080°36'0 0.2
2017-Jul-12 09:11N 31°59' W 080°36'0 0.0
2017-Jul-12 08:59N 31°59' W 080°36'0 0.0
2017-Jul-12 08:23N 31°59' W 080°36'0 0.0
2017-Jul-12 07:59N 31°59' W 080°36'0 0.0
2017-Jul-12 07:23N 31°59' W 080°36'0 0.0
2017-Jul-12 06:59N 31°59' W 080°36'0 0.0
2017-Jul-12 06:29N 31°59' W 080°36'0 0.0
2017-Jul-12 05:59N 31°59' W 080°36'0 0.0
2017-Jul-12 05:29N 31°59' W 080°36'0 0.0
2017-Jul-12 04:53N 31°59' W 080°36'0 0.0
2017-Jul-12 04:29N 31°59' W 080°36'0 0.0
2017-Jul-12 03:59N 31°59' W 080°36'0 0.0
2017-Jul-12 03:29N 31°59' W 080°36'0 0.1
2017-Jul-12 02:53N 31°59' W 080°36'0 0.0
2017-Jul-12 02:29N 31°59' W 080°36'0 0.1
2017-Jul-12 01:59N 31°59' W 080°36'0 0.0
2017-Jul-12 01:29N 31°59' W 080°36'0 0.0
2017-Jul-12 00:59N 31°59' W 080°36'0 0.0
2017-Jul-12 00:29N 31°59' W 080°36'0 0.1
2017-Jul-11 23:47N 31°59' W 080°36'0 0.1
2017-Jul-11 23:29N 31°59' W 080°36'0 0.0
2017-Jul-11 22:59N 31°59' W 080°36'0 0.0
2017-Jul-11 22:29N 31°59' W 080°36'0 0.0
2017-Jul-11 21:59N 31°59' W 080°36'0 0.0
2017-Jul-11 21:17N 31°59' W 080°36'0 0.0
2017-Jul-11 20:53N 31°59' W 080°36'0 0.0
2017-Jul-11 20:29N 31°59' W 080°36'0 0.1
2017-Jul-11 19:59N 31°59' W 080°36'0 0.1
2017-Jul-11 19:29N 31°59' W 080°36'0 0.1
2017-Jul-11 18:59N 31°59' W 080°36'0 0.1
2017-Jul-11 18:29N 31°59' W 080°36'0 0.1
2017-Jul-11 17:59N 31°59' W 080°36'0 0.1
2017-Jul-11 17:29N 31°59' W 080°36'0 0.0
2017-Jul-11 16:59N 31°59' W 080°36'0 0.0
2017-Jul-11 16:23N 31°59' W 080°36'0 0.1
2017-Jul-11 15:59N 31°59' W 080°36'0 0.1
2017-Jul-11 15:23N 31°59' W 080°36'0 0.0
2017-Jul-11 14:59N 31°59' W 080°36'0 0.1
2017-Jul-11 14:29N 31°59' W 080°36'0 0.1
2017-Jul-11 13:59N 31°59' W 080°36'0 0.1
2017-Jul-11 13:29N 31°59' W 080°36'0 0.0
2017-Jul-11 12:59N 31°59' W 080°36'0 0.0
2017-Jul-11 12:29N 31°59' W 080°36'0 0.0
2017-Jul-11 10:53N 31°59' W 080°36'0 0.0
2017-Jul-11 10:17N 31°59' W 080°36'0 0.4
2017-Jul-11 10:00N 31°59' W 080°36'2 4.3
2017-Jul-11 09:30N 31°57' W 080°34'713.5
2017-Jul-11 09:00N 31°52' W 080°29'814.2
2017-Jul-11 08:25N 31°47' W 080°22'613.9
2017-Jul-11 07:59N 31°43' W 080°16'2013.8
2017-Jul-11 06:31N 31°33' W 079°56'18011.6
2017-Jul-10 15:00N 29°48' W 077°06'   160 / 111020.010.8 30.322.228.1

Dump ship's entire track history